Buguruslan, Russia
Current Conditions -  °F | °C
As of 6:00 AM on Saturday 29 Nov 2014 (Local Time) from UWWW Reporting Station
Haze Haze  
Wind Chill: 13°   Ceiling: 700
Heat Index: 19°   Visibility: 2.1mi
Dew Point: 16°   Wind: 4mph
Humidity: 86%   Direction: 310°NW
Pressure: 30.65"   Gusts: NA
Location:  53.65°N, 52.43°E
Report Text: UWWW 290100Z 31002MPS 3500 BR OVC007 M07/M09 Q1038 0545034515//99// NOSIG RMK QFE765/1020
Loading
Personal Weather Stations






























Interactive Weather Map New forecast layout! Learn more

10-Day Weather Forecast

Advertisements
Track Severe Weather on mobile